Portada
METAR-TAF:

METAR-TAF

Aeropuertos :

Aeropuerto de Yakutsk

Yakutsk, Rusia

latitud: 62-01N, longitud: 129-43E, altitud: 103 m

Observación

El informe se hizo hace 33 minutos, a las 00:30 UTC
Viento 14 kt del oeste-suroeste
Temperatura 4°C
Humedad 56%
Presión 1005 hPa
Visibilidad 10 km o más
Cielo nuboso a una altura de 4000 ft

METAR: UEEE 290030Z 25007MPS 9999 BKN040 04/M04 Q1005 R23L/09//60 NOSIG RMK QFE745

Hora: 10:03 (01:03 UTC)

Pronóstico

El informe se hizo hace 2 horas y 3 minutos, a las 23:00 UTC
Pronóstico válido del 29 a las 00 UTC al 30 a las 06 UTC
Viento 14 kt del oeste con ráfagas de 27 kt
Visibilidad 10 km o más
Cielo nuboso a una altura de 2000 ft, Cumulonimbus.
Cielo cubierto a una altura de 7000 ft

TAF: UEEE 282300Z 2900/3006 27007G14MPS 9999 BKN020CB OVC070

Observaciones y pronósticos meteorológicos de más de 4000 aeropuertos (mensajes METAR y TAF).

Los puntos amarillos y rojos representan las estaciones disponibles.

Ponga el ratón en el punto deseado para ver el nombre de la estación.

Haga clic para ver las observaciones y los pronósticos meteorológicos.

Para cambiar el mapa : haga clic en los botones verdes con una cruz de color negro para hacer un zoom, en el botón verde con un guión para alejar o en las flechas verdes para mapas adyacentes.


METAR-TAF: